createdAt,value
2023-10-16T00:00:04.893Z,-2.22
2023-10-16T00:01:06.405Z,-2.24
2023-10-16T00:02:07.929Z,-2.26
2023-10-16T00:03:09.458Z,-2.24
2023-10-16T00:04:11.005Z,-2.23
2023-10-16T00:05:13.170Z,-2.22
2023-10-16T00:06:14.677Z,-2.22
2023-10-16T00:07:16.182Z,-2.22
2023-10-16T00:08:17.749Z,-2.22
2023-10-16T00:09:19.342Z,-2.21
2023-10-16T00:10:20.855Z,-2.22
2023-10-16T00:11:22.280Z,-2.22
2023-10-16T00:12:24.002Z,-2.22
2023-10-16T00:13:25.561Z,-2.22
2023-10-16T00:14:27.288Z,-2.24
2023-10-16T00:15:29.051Z,-2.24
2023-10-16T00:16:30.724Z,-2.25
2023-10-16T00:17:32.666Z,-2.26
2023-10-16T00:18:34.244Z,-2.26
2023-10-16T00:19:35.767Z,-2.27
2023-10-16T00:20:37.334Z,-2.30
2023-10-16T00:21:38.818Z,-2.29
2023-10-16T00:22:40.311Z,-2.32
2023-10-16T00:23:41.813Z,-2.32
2023-10-16T00:24:43.326Z,-2.34
2023-10-16T00:25:44.939Z,-2.35
2023-10-16T00:26:46.443Z,-2.36
2023-10-16T00:27:48.004Z,-2.37
2023-10-16T00:28:49.499Z,-2.38
2023-10-16T00:29:50.935Z,-2.39
2023-10-16T00:30:52.622Z,-2.40
2023-10-16T00:31:54.518Z,-2.40
2023-10-16T00:32:56.029Z,-2.41
2023-10-16T00:33:57.605Z,-2.41
2023-10-16T00:34:59.072Z,-2.41
2023-10-16T00:36:00.570Z,-2.41
2023-10-16T00:37:02.032Z,-2.40
2023-10-16T00:38:03.452Z,-2.44
2023-10-16T00:39:04.904Z,-2.42
2023-10-16T00:40:06.361Z,-2.42
2023-10-16T00:41:07.916Z,-2.43
2023-10-16T00:42:09.395Z,-2.44
2023-10-16T00:43:10.920Z,-2.44
2023-10-16T00:44:12.375Z,-2.44
2023-10-16T00:45:13.844Z,-2.45
2023-10-16T00:46:15.514Z,-2.47
2023-10-16T00:47:17.081Z,-2.45
2023-10-16T00:48:18.605Z,-2.46
2023-10-16T00:49:20.339Z,-2.46
2023-10-16T00:50:21.875Z,-2.46
2023-10-16T00:51:34.319Z,-2.47
2023-10-16T00:52:41.323Z,-2.47
2023-10-16T00:53:42.795Z,-2.48
2023-10-16T00:54:44.291Z,-2.50
2023-10-16T00:55:45.772Z,-2.50
2023-10-16T00:56:47.297Z,-2.53
2023-10-16T00:57:48.805Z,-2.51
2023-10-16T00:58:50.433Z,-2.52
2023-10-16T00:59:51.892Z,-2.54
2023-10-16T01:00:53.379Z,-2.55
2023-10-16T01:01:54.881Z,-2.56
2023-10-16T01:02:56.401Z,-2.57
2023-10-16T01:03:57.992Z,-2.60
2023-10-16T01:04:59.543Z,-2.62
2023-10-16T01:06:01.024Z,-2.67
2023-10-16T01:07:02.506Z,-2.70
2023-10-16T01:08:03.983Z,-2.73
2023-10-16T01:09:05.422Z,-2.77
2023-10-16T01:10:06.902Z,-2.80
2023-10-16T01:11:08.367Z,-2.84
2023-10-16T01:12:10.240Z,-2.88
2023-10-16T01:13:11.739Z,-2.91
2023-10-16T01:14:13.209Z,-2.94
2023-10-16T01:15:14.761Z,-2.97
2023-10-16T01:16:16.281Z,-3.00
2023-10-16T01:17:17.783Z,-3.03
2023-10-16T01:18:19.297Z,-3.06
2023-10-16T01:19:21.397Z,-3.08
2023-10-16T01:20:23.290Z,-3.10
2023-10-16T01:21:24.799Z,-3.12
2023-10-16T01:22:26.292Z,-3.12
2023-10-16T01:23:27.777Z,-3.13
2023-10-16T01:24:29.558Z,-3.13
2023-10-16T01:25:31.181Z,-3.14
2023-10-16T01:26:32.641Z,-3.15
2023-10-16T01:27:34.172Z,-3.15
2023-10-16T01:28:35.745Z,-3.17
2023-10-16T01:29:37.222Z,-3.18
2023-10-16T01:30:38.821Z,-3.18
2023-10-16T01:31:40.347Z,-3.19
2023-10-16T01:32:41.878Z,-3.17
2023-10-16T01:33:43.453Z,-3.17
2023-10-16T01:34:44.969Z,-3.19
2023-10-16T01:35:46.451Z,-3.17
2023-10-16T01:36:48.057Z,-3.17
2023-10-16T01:37:49.660Z,-3.17
2023-10-16T01:38:51.144Z,-3.16
2023-10-16T01:39:52.666Z,-3.16
2023-10-16T01:40:54.176Z,-3.17
2023-10-16T01:41:55.738Z,-3.16
2023-10-16T01:42:57.288Z,-3.16
2023-10-16T01:43:58.783Z,-3.16
2023-10-16T01:45:00.306Z,-3.16
2023-10-16T01:46:04.093Z,-3.16
2023-10-16T01:47:05.703Z,-3.15
2023-10-16T01:48:07.265Z,-3.16
2023-10-16T01:49:08.766Z,-3.17
2023-10-16T01:50:10.222Z,-3.16
2023-10-16T01:51:11.706Z,-3.19
2023-10-16T01:52:13.366Z,-3.21
2023-10-16T01:53:15.025Z,-3.22
2023-10-16T01:54:16.548Z,-3.24
2023-10-16T01:55:18.087Z,-3.24
2023-10-16T01:56:19.620Z,-3.26
2023-10-16T01:57:21.164Z,-3.26
2023-10-16T01:58:22.697Z,-3.26
2023-10-16T01:59:24.201Z,-3.28
2023-10-16T02:00:25.862Z,-3.29
2023-10-16T02:01:27.757Z,-3.30
2023-10-16T02:02:29.393Z,-3.33
2023-10-16T02:03:30.938Z,-3.35
2023-10-16T02:04:32.482Z,-3.36
2023-10-16T02:05:33.915Z,-3.39
2023-10-16T02:06:35.458Z,-3.40
2023-10-16T02:07:36.966Z,-3.42
2023-10-16T02:08:38.456Z,-3.42
2023-10-16T02:09:40.030Z,-3.44
2023-10-16T02:10:41.678Z,-3.44
2023-10-16T02:11:43.136Z,-3.45
2023-10-16T02:12:44.657Z,-3.46
2023-10-16T02:13:46.161Z,-3.46
2023-10-16T02:14:47.694Z,-3.49
2023-10-16T02:15:49.282Z,-3.50
2023-10-16T02:16:50.795Z,-3.53
2023-10-16T02:17:52.318Z,-3.53
2023-10-16T02:18:53.850Z,-3.54
2023-10-16T02:19:55.330Z,-3.54
2023-10-16T02:20:56.864Z,-3.56
2023-10-16T02:21:58.406Z,-3.56
2023-10-16T02:22:59.869Z,-3.55
2023-10-16T02:24:01.397Z,-3.55
2023-10-16T02:25:02.901Z,-3.55
2023-10-16T02:26:04.504Z,-3.55
2023-10-16T02:27:05.958Z,-3.54
2023-10-16T02:28:07.440Z,-3.55
2023-10-16T02:29:08.938Z,-3.54
2023-10-16T02:30:10.409Z,-3.53
2023-10-16T02:31:11.899Z,-3.53
2023-10-16T02:32:13.394Z,-3.53
2023-10-16T02:33:14.861Z,-3.53
2023-10-16T02:34:16.361Z,-3.53
2023-10-16T02:35:17.860Z,-3.51
2023-10-16T02:36:19.454Z,-3.52
2023-10-16T02:37:21.011Z,-3.53
2023-10-16T02:38:22.470Z,-3.52
2023-10-16T02:39:24.025Z,-3.52
2023-10-16T02:40:25.530Z,-3.52
2023-10-16T02:41:27.010Z,-3.53
2023-10-16T02:42:28.554Z,-3.52
2023-10-16T02:43:30.093Z,-3.52
2023-10-16T02:44:31.599Z,-3.53
2023-10-16T02:45:33.096Z,-3.53
2023-10-16T02:46:34.554Z,-3.54
2023-10-16T02:47:36.027Z,-3.53
2023-10-16T02:48:37.540Z,-3.54
2023-10-16T02:49:39.542Z,-3.55
2023-10-16T02:50:41.000Z,-3.56
2023-10-16T02:51:42.513Z,-3.55
2023-10-16T02:52:43.979Z,-3.55
2023-10-16T02:53:45.459Z,-3.55
2023-10-16T02:54:47.024Z,-3.57
2023-10-16T02:55:48.533Z,-3.57
2023-10-16T02:56:49.997Z,-3.58
2023-10-16T02:57:51.463Z,-3.58
2023-10-16T02:58:53.094Z,-3.59
2023-10-16T02:59:54.594Z,-3.60
2023-10-16T03:00:56.136Z,-3.59
2023-10-16T03:01:57.822Z,-3.60
2023-10-16T03:02:59.392Z,-3.61
2023-10-16T03:04:00.949Z,-3.62
2023-10-16T03:05:02.434Z,-3.63
2023-10-16T03:06:03.889Z,-3.64
2023-10-16T03:07:05.437Z,-3.64
2023-10-16T03:08:06.916Z,-3.65
2023-10-16T03:09:08.370Z,-3.67
2023-10-16T03:10:09.953Z,-3.66
2023-10-16T03:11:11.573Z,-3.67
2023-10-16T03:12:13.020Z,-3.68
2023-10-16T03:13:14.470Z,-3.68
2023-10-16T03:14:15.940Z,-3.69
2023-10-16T03:15:17.455Z,-3.69
2023-10-16T03:16:18.964Z,-3.70
2023-10-16T03:17:20.420Z,-3.71
2023-10-16T03:18:21.918Z,-3.71
2023-10-16T03:19:23.417Z,-3.73
2023-10-16T03:20:24.957Z,-3.73
2023-10-16T03:21:26.464Z,-3.74
2023-10-16T03:22:27.935Z,-3.74
2023-10-16T03:23:29.377Z,-3.77
2023-10-16T03:24:30.895Z,-3.78
2023-10-16T03:25:32.741Z,-3.78
2023-10-16T03:26:34.230Z,-3.80
2023-10-16T03:27:35.742Z,-3.79
2023-10-16T03:28:37.342Z,-3.83
2023-10-16T03:29:38.830Z,-3.82
2023-10-16T03:30:40.386Z,-3.84
2023-10-16T03:31:41.973Z,-3.86
2023-10-16T03:32:43.549Z,-3.86
2023-10-16T03:33:45.294Z,-3.88
2023-10-16T03:34:46.984Z,-3.90
2023-10-16T03:35:48.467Z,-3.91
2023-10-16T03:36:49.957Z,-3.91
2023-10-16T03:37:51.559Z,-3.93
2023-10-16T03:38:53.014Z,-3.93
2023-10-16T03:39:54.522Z,-3.93
2023-10-16T03:40:56.023Z,-3.95
2023-10-16T03:41:57.490Z,-3.96
2023-10-16T03:42:59.019Z,-3.97
2023-10-16T03:44:00.523Z,-3.96
2023-10-16T03:45:02.004Z,-3.97
2023-10-16T03:46:03.561Z,-3.97
2023-10-16T03:47:05.030Z,-3.98
2023-10-16T03:48:06.531Z,-3.97
2023-10-16T03:49:08.014Z,-3.98
2023-10-16T03:50:09.515Z,-3.98
2023-10-16T03:51:11.133Z,-3.99
2023-10-16T03:52:12.637Z,-4.00
2023-10-16T03:53:14.105Z,-3.99
2023-10-16T03:54:15.674Z,-4.00
2023-10-16T03:55:17.233Z,-3.99
2023-10-16T03:56:18.786Z,-4.01
2023-10-16T03:57:20.227Z,-4.03
2023-10-16T03:58:21.678Z,-4.03
2023-10-16T03:59:23.136Z,-4.04
2023-10-16T04:00:24.628Z,-4.06
2023-10-16T04:01:26.134Z,-4.06
2023-10-16T04:02:27.613Z,-4.07
2023-10-16T04:03:29.190Z,-4.08
2023-10-16T04:04:30.975Z,-4.10
2023-10-16T04:05:32.720Z,-4.11
2023-10-16T04:06:34.244Z,-4.11
2023-10-16T04:07:35.715Z,-4.11
2023-10-16T04:08:37.172Z,-4.13
2023-10-16T04:09:38.746Z,-4.14
2023-10-16T04:10:40.296Z,-4.13
2023-10-16T04:11:41.817Z,-4.17
2023-10-16T04:12:43.326Z,-4.16
2023-10-16T04:13:44.833Z,-4.16
2023-10-16T04:14:46.344Z,-4.17
2023-10-16T04:15:47.938Z,-4.18
2023-10-16T04:16:49.476Z,-4.17
2023-10-16T04:17:50.972Z,-4.17
2023-10-16T04:18:52.577Z,-4.18
2023-10-16T04:19:54.183Z,-4.18
2023-10-16T04:20:58.254Z,-4.19
2023-10-16T04:21:59.899Z,-4.19
2023-10-16T04:23:01.404Z,-4.19
2023-10-16T04:24:02.930Z,-4.20
2023-10-16T04:25:04.560Z,-4.20
2023-10-16T04:26:06.082Z,-4.20
2023-10-16T04:27:07.553Z,-4.21
2023-10-16T04:28:09.030Z,-4.21
2023-10-16T04:29:10.524Z,-4.21
2023-10-16T04:30:13.364Z,-4.21
2023-10-16T04:31:15.083Z,-4.23
2023-10-16T04:32:16.622Z,-4.23
2023-10-16T04:33:18.085Z,-4.24
2023-10-16T04:34:19.679Z,-4.25
2023-10-16T04:35:21.119Z,-4.26
2023-10-16T04:36:22.580Z,-4.26
2023-10-16T04:37:24.075Z,-4.28
2023-10-16T04:38:25.564Z,-4.29
2023-10-16T04:39:27.154Z,-4.30
2023-10-16T04:40:28.691Z,-4.31
2023-10-16T04:41:31.079Z,-4.32
2023-10-16T04:42:32.595Z,-4.32
2023-10-16T04:43:34.070Z,-4.31
2023-10-16T04:44:35.530Z,-4.33
2023-10-16T04:45:37.122Z,-4.34
2023-10-16T04:46:38.666Z,-4.34
2023-10-16T04:47:40.223Z,-4.36
2023-10-16T04:48:41.743Z,-4.37
2023-10-16T04:49:43.225Z,-4.38
2023-10-16T04:51:16.651Z,-4.40
2023-10-16T04:52:06.228Z,-4.43
2023-10-16T04:53:07.717Z,-4.45
2023-10-16T04:54:09.193Z,-4.48
2023-10-16T04:55:10.638Z,-4.48
2023-10-16T04:56:12.245Z,-4.50
2023-10-16T04:57:13.709Z,-4.50
2023-10-16T04:58:15.168Z,-4.52
2023-10-16T04:59:16.611Z,-4.53
2023-10-16T05:00:18.066Z,-4.54
2023-10-16T05:01:19.563Z,-4.55
2023-10-16T05:02:21.055Z,-4.56
2023-10-16T05:03:22.535Z,-4.56
2023-10-16T05:04:24.226Z,-4.59
2023-10-16T05:05:25.769Z,-4.57
2023-10-16T05:06:27.851Z,-4.57
2023-10-16T05:07:29.395Z,-4.58
2023-10-16T05:08:30.896Z,-4.59
2023-10-16T05:09:32.443Z,-4.60
2023-10-16T05:10:36.782Z,-4.61
2023-10-16T05:11:38.274Z,-4.63
2023-10-16T05:12:39.785Z,-4.64
2023-10-16T05:13:41.318Z,-4.65
2023-10-16T05:14:42.807Z,-4.67
2023-10-16T05:15:44.334Z,-4.70
2023-10-16T05:16:45.888Z,-4.70
2023-10-16T05:17:47.423Z,-4.71
2023-10-16T05:18:50.043Z,-4.73
2023-10-16T05:19:52.678Z,-4.73
2023-10-16T05:20:54.132Z,-4.75
2023-10-16T05:21:55.838Z,-4.74
2023-10-16T05:22:57.356Z,-4.76
2023-10-16T05:23:58.803Z,-4.75
2023-10-16T05:25:00.387Z,-4.75
2023-10-16T05:26:01.892Z,-4.76
2023-10-16T05:27:03.387Z,-4.76
2023-10-16T05:28:04.916Z,-4.79
2023-10-16T05:29:06.401Z,-4.78
2023-10-16T05:30:07.906Z,-4.79
2023-10-16T05:31:09.376Z,-4.80
2023-10-16T05:32:10.908Z,-4.79
2023-10-16T05:33:12.379Z,-4.80
2023-10-16T05:34:13.832Z,-4.80
2023-10-16T05:35:15.299Z,-4.80
2023-10-16T05:36:16.771Z,-4.80
2023-10-16T05:37:18.289Z,-4.81
2023-10-16T05:38:19.759Z,-4.79
2023-10-16T05:39:21.351Z,-4.78
2023-10-16T05:40:22.827Z,-4.78
2023-10-16T05:41:24.271Z,-4.79
2023-10-16T05:42:25.814Z,-4.78
2023-10-16T05:43:27.289Z,-4.79
2023-10-16T05:44:28.852Z,-4.79
2023-10-16T05:45:30.490Z,-4.79
2023-10-16T05:46:32.019Z,-4.79
2023-10-16T05:47:33.547Z,-4.78
2023-10-16T05:48:35.083Z,-4.78
2023-10-16T05:49:36.550Z,-4.78
2023-10-16T05:50:38.046Z,-4.78
2023-10-16T05:51:39.548Z,-4.78
2023-10-16T05:52:41.057Z,-4.78
2023-10-16T05:53:42.538Z,-4.78
2023-10-16T05:54:44.044Z,-4.79
2023-10-16T05:55:45.582Z,-4.80
2023-10-16T05:56:47.114Z,-4.80
2023-10-16T05:57:48.818Z,-4.81
2023-10-16T05:58:50.406Z,-4.81
2023-10-16T05:59:51.915Z,-4.81
2023-10-16T06:00:53.441Z,-4.80
2023-10-16T06:01:55.012Z,-4.79
2023-10-16T06:02:56.573Z,-4.80
2023-10-16T06:03:58.137Z,-4.81
2023-10-16T06:05:01.267Z,-4.80
2023-10-16T06:06:02.910Z,-4.80
2023-10-16T06:07:04.540Z,-4.80
2023-10-16T06:08:06.053Z,-4.79
2023-10-16T06:09:07.515Z,-4.80
2023-10-16T06:10:08.978Z,-4.80
2023-10-16T06:11:10.413Z,-4.80
2023-10-16T06:12:11.903Z,-4.80
2023-10-16T06:13:13.414Z,-4.80
2023-10-16T06:14:14.878Z,-4.81
2023-10-16T06:15:16.352Z,-4.81
2023-10-16T06:16:17.960Z,-4.81
2023-10-16T06:17:19.500Z,-4.80
2023-10-16T06:18:20.970Z,-4.81
2023-10-16T06:19:22.457Z,-4.81
2023-10-16T06:20:23.937Z,-4.81
2023-10-16T06:21:25.486Z,-4.81
2023-10-16T06:22:27.038Z,-4.79
2023-10-16T06:23:29.090Z,-4.80
2023-10-16T06:24:30.772Z,-4.79
2023-10-16T06:25:32.540Z,-4.80
2023-10-16T06:26:34.030Z,-4.79
2023-10-16T06:27:35.560Z,-4.79
2023-10-16T06:28:37.051Z,-4.79
2023-10-16T06:29:38.521Z,-4.79
2023-10-16T06:30:40.033Z,-4.80
2023-10-16T06:31:41.606Z,-4.79
2023-10-16T06:32:43.168Z,-4.79
2023-10-16T06:33:44.697Z,-4.78
2023-10-16T06:34:46.176Z,-4.78
2023-10-16T06:35:47.660Z,-4.78
2023-10-16T06:36:49.171Z,-4.77
2023-10-16T06:37:50.658Z,-4.78
2023-10-16T06:38:52.138Z,-4.78
2023-10-16T06:39:53.643Z,-4.76
2023-10-16T06:40:55.141Z,-4.76
2023-10-16T06:41:56.635Z,-4.76
2023-10-16T06:42:58.151Z,-4.76
2023-10-16T06:43:59.624Z,-4.77
2023-10-16T06:45:01.111Z,-4.75
2023-10-16T06:46:02.685Z,-4.75
2023-10-16T06:47:04.262Z,-4.73
2023-10-16T06:48:05.802Z,-4.73
2023-10-16T06:49:07.315Z,-4.73
2023-10-16T06:50:08.774Z,-4.72
2023-10-16T06:51:10.254Z,-4.72
2023-10-16T06:52:11.723Z,-4.72
2023-10-16T06:53:13.198Z,-4.72
2023-10-16T06:54:14.996Z,-4.71
2023-10-16T06:55:16.475Z,-4.70
2023-10-16T06:56:17.914Z,-4.68
2023-10-16T06:57:19.379Z,-4.68
2023-10-16T06:58:20.860Z,-4.68
2023-10-16T06:59:22.402Z,-4.68
2023-10-16T07:00:23.924Z,-4.67
2023-10-16T07:01:25.656Z,-4.65
2023-10-16T07:02:27.248Z,-4.64
2023-10-16T07:03:28.797Z,-4.64
2023-10-16T07:04:30.641Z,-4.64
2023-10-16T07:05:32.409Z,-4.61
2023-10-16T07:06:34.288Z,-4.61
2023-10-16T07:07:35.959Z,-4.60
2023-10-16T07:08:37.443Z,-4.58
2023-10-16T07:09:38.950Z,-4.58
2023-10-16T07:10:40.529Z,-4.56
2023-10-16T07:11:42.010Z,-4.56
2023-10-16T07:12:43.532Z,-4.54
2023-10-16T07:13:45.038Z,-4.53
2023-10-16T07:14:46.530Z,-4.53
2023-10-16T07:15:48.087Z,-4.51
2023-10-16T07:16:50.200Z,-4.50
2023-10-16T07:17:51.800Z,-4.48
2023-10-16T07:18:53.359Z,-4.45
2023-10-16T07:19:54.930Z,-4.44
2023-10-16T07:20:56.423Z,-4.43
2023-10-16T07:21:57.919Z,-4.40
2023-10-16T07:22:59.412Z,-4.37
2023-10-16T07:24:00.847Z,-4.37
2023-10-16T07:25:02.371Z,-4.35
2023-10-16T07:26:03.838Z,-4.32
2023-10-16T07:27:05.306Z,-4.29
2023-10-16T07:28:06.753Z,-4.27
2023-10-16T07:29:08.427Z,-4.25
2023-10-16T07:30:09.925Z,-4.23
2023-10-16T07:31:11.896Z,-4.19
2023-10-16T07:32:13.902Z,-4.16
2023-10-16T07:33:15.368Z,-4.13
2023-10-16T07:34:17.026Z,-4.11
2023-10-16T07:35:18.776Z,-4.08
2023-10-16T07:36:20.265Z,-4.06
2023-10-16T07:37:21.724Z,-4.02
2023-10-16T07:38:23.209Z,-4.00
2023-10-16T07:39:24.733Z,-3.97
2023-10-16T07:40:26.253Z,-3.94
2023-10-16T07:41:27.714Z,-3.91
2023-10-16T07:42:29.193Z,-3.89
2023-10-16T07:43:30.716Z,-3.85
2023-10-16T07:44:32.282Z,-3.83
2023-10-16T07:45:36.315Z,-3.80
2023-10-16T07:46:38.266Z,-3.76
2023-10-16T07:47:39.779Z,-3.72
2023-10-16T07:48:41.309Z,-3.70
2023-10-16T07:49:42.784Z,-3.67
2023-10-16T07:50:44.298Z,-3.64
2023-10-16T07:51:45.847Z,-3.61
2023-10-16T07:52:47.375Z,-3.57
2023-10-16T07:53:48.872Z,-3.54
2023-10-16T07:54:50.407Z,-3.52
2023-10-16T07:55:52.014Z,-3.47
2023-10-16T07:56:53.633Z,-3.46
2023-10-16T07:57:55.399Z,-3.42
2023-10-16T07:58:56.898Z,-3.39
2023-10-16T07:59:58.386Z,-3.36
2023-10-16T08:01:00.083Z,-3.33
2023-10-16T08:02:01.747Z,-3.30
2023-10-16T08:03:03.399Z,-3.26
2023-10-16T08:04:04.982Z,-3.24
2023-10-16T08:05:06.485Z,-3.20
2023-10-16T08:06:07.961Z,-3.17
2023-10-16T08:07:09.535Z,-3.14
2023-10-16T08:08:11.014Z,-3.10
2023-10-16T08:09:13.705Z,-3.07
2023-10-16T08:10:15.391Z,-3.04
2023-10-16T08:11:16.874Z,-3.01
2023-10-16T08:12:18.329Z,-2.97
2023-10-16T08:13:19.831Z,-2.94
2023-10-16T08:14:21.320Z,-2.91
2023-10-16T08:15:22.784Z,-2.89
2023-10-16T08:16:27.301Z,-2.86
2023-10-16T08:17:29.574Z,-2.81
2023-10-16T08:18:31.250Z,-2.77
2023-10-16T08:19:32.767Z,-2.75
2023-10-16T08:20:34.356Z,-2.72
2023-10-16T08:21:35.910Z,-2.68
2023-10-16T08:22:37.474Z,-2.64
2023-10-16T08:23:38.926Z,-2.62
2023-10-16T08:24:40.429Z,-2.60
2023-10-16T08:25:41.913Z,-2.57
2023-10-16T08:26:43.382Z,-2.54
2023-10-16T08:27:44.909Z,-2.51
2023-10-16T08:28:46.743Z,-2.48
2023-10-16T08:29:48.474Z,-2.45
2023-10-16T08:30:50.068Z,-2.41
2023-10-16T08:31:51.741Z,-2.39
2023-10-16T08:32:53.310Z,-2.36
2023-10-16T08:33:54.822Z,-2.33
2023-10-16T08:34:58.179Z,-2.31
2023-10-16T08:36:01.302Z,-2.28
2023-10-16T08:37:02.858Z,-2.25
2023-10-16T08:38:04.451Z,-2.22
2023-10-16T08:39:05.912Z,-2.18
2023-10-16T08:40:08.638Z,-2.15
2023-10-16T08:41:10.213Z,-2.13
2023-10-16T08:42:11.689Z,-2.11
2023-10-16T08:43:13.318Z,-2.07
2023-10-16T08:44:14.806Z,-2.05
2023-10-16T08:45:16.289Z,-2.02
2023-10-16T08:46:17.757Z,-2.00
2023-10-16T08:47:19.346Z,-1.96
2023-10-16T08:48:20.821Z,-1.94
2023-10-16T08:49:22.270Z,-1.91
2023-10-16T08:50:23.753Z,-1.90
2023-10-16T08:51:25.232Z,-1.86
2023-10-16T08:52:26.710Z,-1.83
2023-10-16T08:53:28.199Z,-1.80
2023-10-16T08:54:29.674Z,-1.78
2023-10-16T08:55:31.153Z,-1.74
2023-10-16T08:56:32.616Z,-1.71
2023-10-16T08:57:34.136Z,-1.69
2023-10-16T08:58:35.740Z,-1.66
2023-10-16T08:59:37.216Z,-1.63
2023-10-16T09:00:38.725Z,-1.60
2023-10-16T09:01:40.351Z,-1.57
2023-10-16T09:02:41.908Z,-1.54
2023-10-16T09:03:43.778Z,-1.52
2023-10-16T09:04:45.559Z,-1.49
2023-10-16T09:05:47.105Z,-1.46
2023-10-16T09:06:48.608Z,-1.43
2023-10-16T09:07:50.134Z,-1.39
2023-10-16T09:08:51.629Z,-1.37
2023-10-16T09:09:53.192Z,-1.35
2023-10-16T09:10:54.728Z,-1.31
2023-10-16T09:11:56.213Z,-1.29
2023-10-16T09:12:57.757Z,-1.26
2023-10-16T09:13:59.239Z,-1.23
2023-10-16T09:15:02.991Z,-1.19
2023-10-16T09:16:04.715Z,-1.16
2023-10-16T09:17:06.311Z,-1.14
2023-10-16T09:18:07.848Z,-1.11
2023-10-16T09:19:09.365Z,-1.08
2023-10-16T09:20:10.840Z,-1.07
2023-10-16T09:21:12.339Z,-1.03
2023-10-16T09:22:13.837Z,-1.00
2023-10-16T09:23:15.366Z,-0.97
2023-10-16T09:24:16.892Z,-0.94
2023-10-16T09:26:22.779Z,-0.89
2023-10-16T09:27:24.356Z,-0.87
2023-10-16T09:28:25.833Z,-0.84
2023-10-16T09:29:27.436Z,-0.82
2023-10-16T09:30:29.184Z,-0.80
2023-10-16T09:31:30.810Z,-0.77
2023-10-16T09:32:32.441Z,-0.74
2023-10-16T09:33:34.001Z,-0.72
2023-10-16T09:34:36.846Z,-0.69
2023-10-16T09:35:38.306Z,-0.67
2023-10-16T09:36:39.806Z,-0.63
2023-10-16T09:37:41.401Z,-0.62
2023-10-16T09:38:42.870Z,-0.59
2023-10-16T09:39:44.384Z,-0.57
2023-10-16T09:40:45.904Z,-0.54
2023-10-16T09:41:47.554Z,-0.51
2023-10-16T09:42:49.098Z,-0.48
2023-10-16T09:43:50.584Z,-0.46
2023-10-16T09:44:52.026Z,-0.42
2023-10-16T09:45:53.512Z,-0.39
2023-10-16T09:46:55.265Z,-0.36
2023-10-16T09:47:56.867Z,-0.34
2023-10-16T09:48:58.385Z,-0.30
2023-10-16T09:49:59.989Z,-0.28
2023-10-16T09:51:01.591Z,-0.23
2023-10-16T09:52:06.795Z,-0.21
2023-10-16T09:53:09.602Z,-0.16
2023-10-16T09:54:11.173Z,-0.13
2023-10-16T09:55:12.764Z,-0.10
2023-10-16T09:56:14.210Z,-0.06
2023-10-16T09:57:15.695Z,-0.03
2023-10-16T09:58:17.178Z,0.02
2023-10-16T09:59:18.653Z,0.05
2023-10-16T10:00:20.167Z,0.08
2023-10-16T10:01:21.777Z,0.12
2023-10-16T10:02:23.305Z,0.17
2023-10-16T10:03:24.817Z,0.21
2023-10-16T10:04:26.861Z,0.23
2023-10-16T10:05:28.621Z,0.27
2023-10-16T10:06:30.114Z,0.31
2023-10-16T10:07:31.649Z,0.35
2023-10-16T10:08:34.866Z,0.38
2023-10-16T10:09:37.235Z,0.42
2023-10-16T10:10:38.717Z,0.47
2023-10-16T10:11:40.237Z,0.49
2023-10-16T10:12:41.815Z,0.54
2023-10-16T10:13:43.266Z,0.57
2023-10-16T10:14:44.732Z,0.60
2023-10-16T10:15:46.386Z,0.65
2023-10-16T10:16:47.987Z,0.67
2023-10-16T10:17:49.578Z,0.72
2023-10-16T10:18:51.079Z,0.76
2023-10-16T10:19:52.556Z,0.80
2023-10-16T10:20:54.053Z,0.83
2023-10-16T10:21:55.653Z,0.87
2023-10-16T10:22:57.151Z,0.91
2023-10-16T10:23:58.662Z,0.94
2023-10-16T10:25:01.931Z,0.99
2023-10-16T10:26:04.654Z,1.02
2023-10-16T10:27:06.149Z,1.07
2023-10-16T10:28:07.675Z,1.11
2023-10-16T10:29:09.222Z,1.15
2023-10-16T10:30:10.724Z,1.18
2023-10-16T10:31:12.306Z,1.23
2023-10-16T10:32:13.954Z,1.27
2023-10-16T10:33:15.466Z,1.31
2023-10-16T10:34:16.999Z,1.36
2023-10-16T10:35:18.552Z,1.40
2023-10-16T10:36:20.063Z,1.44
2023-10-16T10:37:21.577Z,1.47
2023-10-16T10:38:23.109Z,1.52
2023-10-16T10:39:24.624Z,1.57
2023-10-16T10:40:26.139Z,1.60
2023-10-16T10:41:27.653Z,1.64
2023-10-16T10:42:29.134Z,1.68
2023-10-16T10:43:30.598Z,1.72
2023-10-16T10:44:32.074Z,1.76
2023-10-16T10:45:33.561Z,1.81
2023-10-16T10:46:35.223Z,1.84
2023-10-16T10:47:36.850Z,1.87
2023-10-16T10:48:38.441Z,1.91
2023-10-16T10:49:39.984Z,1.96
2023-10-16T10:50:41.539Z,1.99
2023-10-16T10:51:43.098Z,2.02
2023-10-16T10:52:44.801Z,2.06
2023-10-16T10:53:46.325Z,2.09
2023-10-16T10:54:47.825Z,2.13
2023-10-16T10:55:49.347Z,2.18
2023-10-16T10:56:50.845Z,2.21
2023-10-16T10:57:52.335Z,2.25
2023-10-16T10:58:53.879Z,2.28
2023-10-16T10:59:55.365Z,2.31
2023-10-16T11:00:56.921Z,2.34
2023-10-16T11:01:58.457Z,2.38
2023-10-16T11:03:00.047Z,2.42
2023-10-16T11:04:01.738Z,2.45
2023-10-16T11:05:03.282Z,2.49
2023-10-16T11:06:04.750Z,2.52
2023-10-16T11:07:06.348Z,2.56
2023-10-16T11:08:10.274Z,2.59
2023-10-16T11:09:11.761Z,2.63
2023-10-16T11:10:13.297Z,2.65
2023-10-16T11:11:14.797Z,2.69
2023-10-16T11:12:16.263Z,2.71
2023-10-16T11:13:17.718Z,2.76
2023-10-16T11:14:19.286Z,2.78
2023-10-16T11:15:20.872Z,2.82
2023-10-16T11:16:22.366Z,2.83
2023-10-16T11:17:24.019Z,2.87
2023-10-16T11:18:25.652Z,2.89
2023-10-16T11:19:27.277Z,2.93
2023-10-16T11:20:28.935Z,2.95
2023-10-16T11:21:30.519Z,2.97
2023-10-16T11:22:32.005Z,3.01
2023-10-16T11:23:33.926Z,3.03
2023-10-16T11:24:35.432Z,3.05
2023-10-16T11:25:36.932Z,3.07
2023-10-16T11:26:38.416Z,3.09
2023-10-16T11:27:39.951Z,3.13
2023-10-16T11:28:41.500Z,3.15
2023-10-16T11:29:43.037Z,3.17
2023-10-16T11:30:44.561Z,3.18
2023-10-16T11:31:46.113Z,3.20
2023-10-16T11:32:47.620Z,3.21
2023-10-16T11:33:49.159Z,3.23
2023-10-16T11:34:50.662Z,3.24
2023-10-16T11:35:52.137Z,3.26
2023-10-16T11:36:53.604Z,3.26
2023-10-16T11:37:55.114Z,3.28
2023-10-16T11:38:56.579Z,3.28
2023-10-16T11:39:58.040Z,3.29
2023-10-16T11:40:59.620Z,3.29
2023-10-16T11:42:01.092Z,3.30
2023-10-16T11:43:02.624Z,3.31
2023-10-16T11:44:04.141Z,3.30
2023-10-16T11:45:05.619Z,3.32
2023-10-16T11:46:07.219Z,3.31
2023-10-16T11:47:08.898Z,3.32
2023-10-16T11:48:12.175Z,3.32
2023-10-16T11:49:13.745Z,3.32
2023-10-16T11:50:15.254Z,3.33
2023-10-16T11:51:16.728Z,3.32
2023-10-16T11:52:18.181Z,3.32
2023-10-16T11:53:19.650Z,3.32
2023-10-16T11:54:21.127Z,3.32
2023-10-16T11:55:22.664Z,3.32
2023-10-16T11:56:24.140Z,3.31
2023-10-16T11:57:25.598Z,3.31
2023-10-16T11:58:27.070Z,3.31
2023-10-16T11:59:28.578Z,3.31
2023-10-16T12:00:30.044Z,3.30
2023-10-16T12:01:43.465Z,3.30
2023-10-16T12:02:52.103Z,3.29
2023-10-16T12:03:53.740Z,3.28
2023-10-16T12:04:55.422Z,3.28
2023-10-16T12:05:56.953Z,3.27
2023-10-16T12:06:58.453Z,3.27
2023-10-16T12:07:59.932Z,3.26
2023-10-16T12:09:01.579Z,3.26
2023-10-16T12:10:03.100Z,3.25
2023-10-16T12:11:04.636Z,3.24
2023-10-16T12:12:06.398Z,3.23
2023-10-16T12:13:07.949Z,3.22
2023-10-16T12:14:09.498Z,3.22
2023-10-16T12:15:10.982Z,3.21
2023-10-16T12:16:20.570Z,3.21
2023-10-16T12:17:30.217Z,3.21
2023-10-16T12:18:31.703Z,3.19
2023-10-16T12:19:33.239Z,3.18
2023-10-16T12:20:34.719Z,3.17
2023-10-16T12:21:36.279Z,3.16
2023-10-16T12:22:37.809Z,3.15
2023-10-16T12:23:39.416Z,3.15
2023-10-16T12:24:41.086Z,3.14
2023-10-16T12:25:42.621Z,3.13
2023-10-16T12:26:44.731Z,3.11
2023-10-16T12:27:46.202Z,3.12
2023-10-16T12:28:47.776Z,3.11
2023-10-16T12:29:49.260Z,3.09
2023-10-16T12:30:50.739Z,3.08
2023-10-16T12:31:52.355Z,3.08
2023-10-16T12:32:53.876Z,3.06
2023-10-16T12:33:55.380Z,3.07
2023-10-16T12:34:56.873Z,3.06
2023-10-16T12:35:58.412Z,3.04
2023-10-16T12:36:59.880Z,3.05
2023-10-16T12:38:01.385Z,3.04
2023-10-16T12:39:02.862Z,3.03
2023-10-16T12:40:04.402Z,3.03
2023-10-16T12:41:05.872Z,3.02
2023-10-16T12:42:07.367Z,3.02
2023-10-16T12:43:08.884Z,3.00
2023-10-16T12:44:10.593Z,3.01
2023-10-16T12:45:12.288Z,3.01
2023-10-16T12:46:13.886Z,2.99
2023-10-16T12:47:28.159Z,3.00
2023-10-16T12:48:37.002Z,2.99
2023-10-16T12:49:38.570Z,2.98
2023-10-16T12:50:40.444Z,2.98
2023-10-16T12:51:42.688Z,2.97
2023-10-16T12:52:44.153Z,2.97
2023-10-16T12:53:45.598Z,2.96
2023-10-16T12:54:47.090Z,2.96
2023-10-16T12:55:48.599Z,2.95
2023-10-16T12:56:50.071Z,2.95
2023-10-16T12:57:51.623Z,2.96
2023-10-16T12:58:53.089Z,2.94
2023-10-16T12:59:54.542Z,2.95
2023-10-16T13:00:56.061Z,2.94
2023-10-16T13:01:57.545Z,2.93
2023-10-16T13:02:59.036Z,2.94
2023-10-16T13:04:00.648Z,2.93
2023-10-16T13:05:02.186Z,2.91
2023-10-16T13:06:03.681Z,2.93
2023-10-16T13:07:05.184Z,2.93
2023-10-16T13:08:06.886Z,2.92
2023-10-16T13:09:08.417Z,2.92
2023-10-16T13:10:10.014Z,2.93
2023-10-16T13:11:11.674Z,2.92
2023-10-16T13:12:13.195Z,2.91
2023-10-16T13:13:14.770Z,2.91
2023-10-16T13:14:16.278Z,2.91
2023-10-16T13:15:17.827Z,2.91
2023-10-16T13:16:20.299Z,2.92
2023-10-16T13:17:21.819Z,2.91
2023-10-16T13:18:23.275Z,2.91
2023-10-16T13:19:24.735Z,2.92
2023-10-16T13:20:26.215Z,2.92
2023-10-16T13:21:27.671Z,2.92
2023-10-16T13:22:29.150Z,2.93